Airfield :
LOGIN :

Register | Disclaimer

   EN    FR    IT 

 










Legend :    VFR   Marginal VFR   IFR   Intensive IFR   Very Intensive IFR
Visi :
Ceiling :
>= 8 km
>= 3000ft
5 to 8 km
1000 to 3000 ft
1500m to 5 km
500 to 1000 ft
800 to 1500m
200 to 500 ft
< 800m
< 200 ft
Symbols :   Thunderstorms  Fog  Heavy snow  Heavy precipitations  Wind > 20 kt
SIGMETs :     Misc.  Thunderstorms  Icing  Turbulence  Mountain Waves  Volcanic Ashes






- Airport Elevation : 17 ft
- IATA code : MPL


LFMT - Montpellier Méditerranée

CURRENT METAR :
  • 181300Z AUTO 19008KT 9999 FEW009 25/20 Q1018 NOSIG

EXPIRED METARs :
  • 181230Z AUTO 18008KT 150V210 9999 FEW011 24/19 Q1018 NOSIG
  • 181200Z AUTO 16010KT CAVOK 24/19 Q1018 NOSIG
  • 181130Z AUTO 17009KT CAVOK 25/19 Q1018 NOSIG
  • 181100Z AUTO 17010KT CAVOK 25/19 Q1018 NOSIG
  • 181030Z AUTO 16011KT CAVOK 25/18 Q1018 NOSIG

TAF TAF LFMT
Valid from the 18 at 09:00 until the 19 at 09:00 UTC


180800Z 1809/1909 20010KT CAVOK
BECMG 1815/1818 BKN005
BECMG 1818/1821 VRB07KT
PROB40
TEMPO 1818/1902 0300 FG VV///
ATIS : +33 4 67 13 11 70



MET'MAP, your aeronautical weather chart ! - Copyright ORBIFLY December 2007 - Disclaimer

ORBIFLY MET'MAP TEAM :

Programming & Development : Alexandra Zaïnal
Original concept : Baudouin d'Aumeries
Technical & hardware support : Manuel Goepfert
Assistance : Marc-Olivier Méhu

Contact : metmap@orbifly.com




SOURCES & CREDITS :

   NOAA